sensor_id;sensor_type;location;lat;lon;timestamp;temperature;humidity
24224;DHT22;12359;49.716;9.212;2023-04-06T00:01:46;0.90;99.90
24224;DHT22;12359;49.716;9.212;2023-04-06T00:04:12;0.90;99.90
24224;DHT22;12359;49.716;9.212;2023-04-06T00:06:38;0.80;99.90
24224;DHT22;12359;49.716;9.212;2023-04-06T00:09:03;0.70;99.90
24224;DHT22;12359;49.716;9.212;2023-04-06T00:11:29;0.60;99.90
24224;DHT22;12359;49.716;9.212;2023-04-06T00:13:55;0.60;99.90
24224;DHT22;12359;49.716;9.212;2023-04-06T00:16:21;0.60;99.90
24224;DHT22;12359;49.716;9.212;2023-04-06T00:18:46;0.50;99.90
24224;DHT22;12359;49.716;9.212;2023-04-06T00:21:13;0.50;99.90
24224;DHT22;12359;49.716;9.212;2023-04-06T00:23:40;0.50;1.00
24224;DHT22;12359;49.716;9.212;2023-04-06T00:26:06;0.50;1.00
24224;DHT22;12359;49.716;9.212;2023-04-06T00:28:32;0.50;1.00
24224;DHT22;12359;49.716;9.212;2023-04-06T00:30:57;0.50;99.90
24224;DHT22;12359;49.716;9.212;2023-04-06T00:33:23;0.40;1.00
24224;DHT22;12359;49.716;9.212;2023-04-06T00:35:49;0.40;1.00
24224;DHT22;12359;49.716;9.212;2023-04-06T00:38:15;0.40;1.00
24224;DHT22;12359;49.716;9.212;2023-04-06T00:40:42;0.40;1.00
24224;DHT22;12359;49.716;9.212;2023-04-06T00:43:10;0.40;1.00
24224;DHT22;12359;49.716;9.212;2023-04-06T00:45:37;0.30;1.00
24224;DHT22;12359;49.716;9.212;2023-04-06T00:48:03;0.20;1.00
24224;DHT22;12359;49.716;9.212;2023-04-06T00:50:30;0.20;1.00
24224;DHT22;12359;49.716;9.212;2023-04-06T00:52:56;0.20;1.00
24224;DHT22;12359;49.716;9.212;2023-04-06T00:55:22;0.20;1.00
24224;DHT22;12359;49.716;9.212;2023-04-06T00:57:47;0.20;1.00
24224;DHT22;12359;49.716;9.212;2023-04-06T01:00:15;0.20;1.00
24224;DHT22;12359;49.716;9.212;2023-04-06T01:02:41;0.20;1.00
24224;DHT22;12359;49.716;9.212;2023-04-06T01:05:08;0.30;1.00
24224;DHT22;12359;49.716;9.212;2023-04-06T01:07:33;0.30;1.00
24224;DHT22;12359;49.716;9.212;2023-04-06T01:09:59;0.20;1.00
24224;DHT22;12359;49.716;9.212;2023-04-06T01:12:25;0.20;1.00
24224;DHT22;12359;49.716;9.212;2023-04-06T01:14:51;0.20;1.00
24224;DHT22;12359;49.716;9.212;2023-04-06T01:17:16;0.10;1.00
24224;DHT22;12359;49.716;9.212;2023-04-06T01:19:42;0.10;1.00
24224;DHT22;12359;49.716;9.212;2023-04-06T01:22:15;0.10;1.00
24224;DHT22;12359;49.716;9.212;2023-04-06T01:24:40;0.10;1.00
24224;DHT22;12359;49.716;9.212;2023-04-06T01:27:06;0.00;1.00
24224;DHT22;12359;49.716;9.212;2023-04-06T01:29:32;-0.10;1.00
24224;DHT22;12359;49.716;9.212;2023-04-06T01:31:57;-0.10;1.00
24224;DHT22;12359;49.716;9.212;2023-04-06T01:34:23;0.00;1.00
24224;DHT22;12359;49.716;9.212;2023-04-06T01:36:49;0.00;1.00
24224;DHT22;12359;49.716;9.212;2023-04-06T01:39:14;0.00;1.00
24224;DHT22;12359;49.716;9.212;2023-04-06T01:41:41;0.00;1.00
24224;DHT22;12359;49.716;9.212;2023-04-06T01:44:06;-0.10;1.00
24224;DHT22;12359;49.716;9.212;2023-04-06T01:46:32;-0.10;1.00
24224;DHT22;12359;49.716;9.212;2023-04-06T01:48:58;-0.20;1.00
24224;DHT22;12359;49.716;9.212;2023-04-06T01:51:23;-0.10;1.00
24224;DHT22;12359;49.716;9.212;2023-04-06T01:53:50;-0.10;1.00
24224;DHT22;12359;49.716;9.212;2023-04-06T01:56:16;-0.20;1.00
24224;DHT22;12359;49.716;9.212;2023-04-06T01:58:42;-0.20;1.00
24224;DHT22;12359;49.716;9.212;2023-04-06T02:01:07;-0.20;1.00
24224;DHT22;12359;49.716;9.212;2023-04-06T02:03:33;-0.30;1.00
24224;DHT22;12359;49.716;9.212;2023-04-06T02:05:59;-0.30;1.00
24224;DHT22;12359;49.716;9.212;2023-04-06T02:08:25;-0.30;1.00
24224;DHT22;12359;49.716;9.212;2023-04-06T02:10:50;-0.30;1.00
24224;DHT22;12359;49.716;9.212;2023-04-06T02:13:16;-0.30;1.00
24224;DHT22;12359;49.716;9.212;2023-04-06T02:15:42;-0.30;1.00
24224;DHT22;12359;49.716;9.212;2023-04-06T02:18:07;-0.30;1.00
24224;DHT22;12359;49.716;9.212;2023-04-06T02:20:34;-0.30;1.00
24224;DHT22;12359;49.716;9.212;2023-04-06T02:23:00;-0.30;1.00
24224;DHT22;12359;49.716;9.212;2023-04-06T02:25:26;-0.30;1.00
24224;DHT22;12359;49.716;9.212;2023-04-06T02:27:52;-0.40;1.00
24224;DHT22;12359;49.716;9.212;2023-04-06T02:30:17;-0.40;1.00
24224;DHT22;12359;49.716;9.212;2023-04-06T02:32:43;-0.40;1.00
24224;DHT22;12359;49.716;9.212;2023-04-06T02:35:09;-0.40;1.00
24224;DHT22;12359;49.716;9.212;2023-04-06T02:37:35;-0.40;1.00
24224;DHT22;12359;49.716;9.212;2023-04-06T02:40:00;-0.40;1.00
24224;DHT22;12359;49.716;9.212;2023-04-06T02:42:26;-0.40;1.00
24224;DHT22;12359;49.716;9.212;2023-04-06T02:44:52;-0.40;1.00
24224;DHT22;12359;49.716;9.212;2023-04-06T02:47:17;-0.40;1.00
24224;DHT22;12359;49.716;9.212;2023-04-06T02:49:43;-0.40;1.00
24224;DHT22;12359;49.716;9.212;2023-04-06T02:52:09;-0.40;1.00
24224;DHT22;12359;49.716;9.212;2023-04-06T02:54:34;-0.50;1.00
24224;DHT22;12359;49.716;9.212;2023-04-06T02:57:00;-0.40;1.00
24224;DHT22;12359;49.716;9.212;2023-04-06T02:59:26;-0.50;1.00
24224;DHT22;12359;49.716;9.212;2023-04-06T03:01:51;-0.50;1.00
24224;DHT22;12359;49.716;9.212;2023-04-06T03:04:17;-0.50;1.00
24224;DHT22;12359;49.716;9.212;2023-04-06T03:06:43;-0.50;1.00
24224;DHT22;12359;49.716;9.212;2023-04-06T03:09:08;-0.50;1.00
24224;DHT22;12359;49.716;9.212;2023-04-06T03:11:34;-0.60;1.00
24224;DHT22;12359;49.716;9.212;2023-04-06T03:14:00;-0.60;1.00
24224;DHT22;12359;49.716;9.212;2023-04-06T03:16:26;-0.60;1.00
24224;DHT22;12359;49.716;9.212;2023-04-06T03:18:51;-0.60;1.00
24224;DHT22;12359;49.716;9.212;2023-04-06T03:21:17;-0.70;1.00
24224;DHT22;12359;49.716;9.212;2023-04-06T03:23:44;-0.70;1.00
24224;DHT22;12359;49.716;9.212;2023-04-06T03:26:11;-0.60;1.00
24224;DHT22;12359;49.716;9.212;2023-04-06T03:28:36;-0.70;1.00
24224;DHT22;12359;49.716;9.212;2023-04-06T03:31:02;-0.60;1.00
24224;DHT22;12359;49.716;9.212;2023-04-06T03:33:28;-0.50;1.00
24224;DHT22;12359;49.716;9.212;2023-04-06T03:35:54;-0.50;1.00
24224;DHT22;12359;49.716;9.212;2023-04-06T03:38:20;-0.60;1.00
24224;DHT22;12359;49.716;9.212;2023-04-06T03:40:46;-0.60;1.00
24224;DHT22;12359;49.716;9.212;2023-04-06T03:43:12;-0.70;1.00
24224;DHT22;12359;49.716;9.212;2023-04-06T03:45:37;-0.60;1.00
24224;DHT22;12359;49.716;9.212;2023-04-06T03:48:04;-0.70;1.00
24224;DHT22;12359;49.716;9.212;2023-04-06T03:50:30;-0.70;1.00
24224;DHT22;12359;49.716;9.212;2023-04-06T03:52:56;-0.80;1.00
24224;DHT22;12359;49.716;9.212;2023-04-06T03:55:21;-0.80;1.00
24224;DHT22;12359;49.716;9.212;2023-04-06T03:57:47;-0.80;1.70
24224;DHT22;12359;49.716;9.212;2023-04-06T04:00:13;-0.80;2.60
24224;DHT22;12359;49.716;9.212;2023-04-06T04:02:39;-0.70;2.40
24224;DHT22;12359;49.716;9.212;2023-04-06T04:05:06;-0.80;2.00
24224;DHT22;12359;49.716;9.212;2023-04-06T04:07:31;-0.80;1.80
24224;DHT22;12359;49.716;9.212;2023-04-06T04:09:57;-0.80;1.00
24224;DHT22;12359;49.716;9.212;2023-04-06T04:12:23;-0.80;1.00
24224;DHT22;12359;49.716;9.212;2023-04-06T04:14:48;-0.80;1.00
24224;DHT22;12359;49.716;9.212;2023-04-06T04:17:14;-0.80;1.00
24224;DHT22;12359;49.716;9.212;2023-04-06T04:19:40;-0.90;1.00
24224;DHT22;12359;49.716;9.212;2023-04-06T04:22:06;-0.80;1.00
24224;DHT22;12359;49.716;9.212;2023-04-06T04:24:32;-0.90;1.00
24224;DHT22;12359;49.716;9.212;2023-04-06T04:26:58;-0.80;1.00
24224;DHT22;12359;49.716;9.212;2023-04-06T04:29:23;-0.80;1.00
24224;DHT22;12359;49.716;9.212;2023-04-06T04:31:49;-0.80;1.10
24224;DHT22;12359;49.716;9.212;2023-04-06T04:34:16;-0.80;1.00
24224;DHT22;12359;49.716;9.212;2023-04-06T04:36:42;-0.90;1.00
24224;DHT22;12359;49.716;9.212;2023-04-06T04:39:08;-0.90;1.00
24224;DHT22;12359;49.716;9.212;2023-04-06T04:41:34;-0.90;6.40
24224;DHT22;12359;49.716;9.212;2023-04-06T04:43:59;-1.00;7.60
24224;DHT22;12359;49.716;9.212;2023-04-06T04:46:25;-0.90;8.30
24224;DHT22;12359;49.716;9.212;2023-04-06T04:48:51;-0.90;5.30
24224;DHT22;12359;49.716;9.212;2023-04-06T04:51:16;-0.90;5.60
24224;DHT22;12359;49.716;9.212;2023-04-06T04:53:42;-0.90;5.70
24224;DHT22;12359;49.716;9.212;2023-04-06T04:56:08;-0.90;3.10
24224;DHT22;12359;49.716;9.212;2023-04-06T04:58:34;-1.00;4.50
24224;DHT22;12359;49.716;9.212;2023-04-06T05:00:59;-1.00;6.10
24224;DHT22;12359;49.716;9.212;2023-04-06T05:03:26;-1.00;8.70
24224;DHT22;12359;49.716;9.212;2023-04-06T05:05:52;-1.00;13.80
24224;DHT22;12359;49.716;9.212;2023-04-06T05:08:18;-1.00;8.40
24224;DHT22;12359;49.716;9.212;2023-04-06T05:10:44;-1.00;8.70
24224;DHT22;12359;49.716;9.212;2023-04-06T05:13:10;-1.00;10.20
24224;DHT22;12359;49.716;9.212;2023-04-06T05:15:36;-1.00;13.30
24224;DHT22;12359;49.716;9.212;2023-04-06T05:18:06;-0.90;8.80
24224;DHT22;12359;49.716;9.212;2023-04-06T05:20:32;-0.80;1.80
24224;DHT22;12359;49.716;9.212;2023-04-06T05:22:58;-0.80;4.10
24224;DHT22;12359;49.716;9.212;2023-04-06T05:25:24;-0.90;5.40
24224;DHT22;12359;49.716;9.212;2023-04-06T05:27:50;-0.80;5.90
24224;DHT22;12359;49.716;9.212;2023-04-06T05:30:16;-0.80;5.30
24224;DHT22;12359;49.716;9.212;2023-04-06T05:32:42;-0.80;1.00
24224;DHT22;12359;49.716;9.212;2023-04-06T05:35:10;-0.70;1.00
24224;DHT22;12359;49.716;9.212;2023-04-06T05:37:36;-0.70;1.00
24224;DHT22;12359;49.716;9.212;2023-04-06T05:40:02;-0.70;1.00
24224;DHT22;12359;49.716;9.212;2023-04-06T05:42:35;-0.70;1.00
24224;DHT22;12359;49.716;9.212;2023-04-06T05:45:02;-0.60;1.00
24224;DHT22;12359;49.716;9.212;2023-04-06T05:47:27;-0.40;1.00
24224;DHT22;12359;49.716;9.212;2023-04-06T05:49:53;-0.20;1.00
24224;DHT22;12359;49.716;9.212;2023-04-06T05:52:19;0.00;1.00
24224;DHT22;12359;49.716;9.212;2023-04-06T05:54:45;0.00;1.00
24224;DHT22;12359;49.716;9.212;2023-04-06T05:57:10;0.10;1.00
24224;DHT22;12359;49.716;9.212;2023-04-06T05:59:36;0.30;1.00
24224;DHT22;12359;49.716;9.212;2023-04-06T06:02:02;0.60;99.90
24224;DHT22;12359;49.716;9.212;2023-04-06T06:04:28;1.10;99.90
24224;DHT22;12359;49.716;9.212;2023-04-06T06:06:53;1.80;1.00
24224;DHT22;12359;49.716;9.212;2023-04-06T06:09:19;2.30;1.00
24224;DHT22;12359;49.716;9.212;2023-04-06T06:11:45;2.40;99.90
24224;DHT22;12359;49.716;9.212;2023-04-06T06:14:11;2.70;1.00
24224;DHT22;12359;49.716;9.212;2023-04-06T06:16:37;3.10;48.60
24224;DHT22;12359;49.716;9.212;2023-04-06T06:19:02;3.60;1.00
24224;DHT22;12359;49.716;9.212;2023-04-06T06:21:28;4.30;99.90
24224;DHT22;12359;49.716;9.212;2023-04-06T06:23:54;4.30;20.60
24224;DHT22;12359;49.716;9.212;2023-04-06T06:26:20;4.70;1.00
24224;DHT22;12359;49.716;9.212;2023-04-06T06:28:46;4.80;67.80
24224;DHT22;12359;49.716;9.212;2023-04-06T06:31:11;4.80;16.60
24224;DHT22;12359;49.716;9.212;2023-04-06T06:33:37;5.20;20.10
24224;DHT22;12359;49.716;9.212;2023-04-06T06:36:03;5.50;99.90
24224;DHT22;12359;49.716;9.212;2023-04-06T06:38:29;6.10;99.90
24224;DHT22;12359;49.716;9.212;2023-04-06T06:40:54;5.90;53.60
24224;DHT22;12359;49.716;9.212;2023-04-06T06:43:20;6.30;19.10
24224;DHT22;12359;49.716;9.212;2023-04-06T06:45:46;6.60;1.00
24224;DHT22;12359;49.716;9.212;2023-04-06T06:48:12;6.90;99.90
24224;DHT22;12359;49.716;9.212;2023-04-06T06:50:38;6.80;99.90
24224;DHT22;12359;49.716;9.212;2023-04-06T06:53:03;6.80;99.90
24224;DHT22;12359;49.716;9.212;2023-04-06T06:55:29;6.90;99.90
24224;DHT22;12359;49.716;9.212;2023-04-06T06:57:55;6.50;99.90
24224;DHT22;12359;49.716;9.212;2023-04-06T07:00:21;6.50;99.90
24224;DHT22;12359;49.716;9.212;2023-04-06T07:02:47;7.00;99.90
24224;DHT22;12359;49.716;9.212;2023-04-06T07:05:14;7.50;99.90
24224;DHT22;12359;49.716;9.212;2023-04-06T07:07:40;8.10;99.90
24224;DHT22;12359;49.716;9.212;2023-04-06T07:10:08;8.30;99.90
24224;DHT22;12359;49.716;9.212;2023-04-06T07:12:34;8.30;99.90
24224;DHT22;12359;49.716;9.212;2023-04-06T07:15:00;8.20;99.90
24224;DHT22;12359;49.716;9.212;2023-04-06T07:17:26;8.20;99.90
24224;DHT22;12359;49.716;9.212;2023-04-06T07:19:52;8.20;99.90
24224;DHT22;12359;49.716;9.212;2023-04-06T07:22:17;7.90;99.90
24224;DHT22;12359;49.716;9.212;2023-04-06T07:24:43;7.50;99.90
24224;DHT22;12359;49.716;9.212;2023-04-06T07:27:09;7.60;99.90
24224;DHT22;12359;49.716;9.212;2023-04-06T07:29:34;8.20;99.90
24224;DHT22;12359;49.716;9.212;2023-04-06T07:32:00;8.20;99.90
24224;DHT22;12359;49.716;9.212;2023-04-06T07:34:26;8.30;99.90
24224;DHT22;12359;49.716;9.212;2023-04-06T07:36:52;8.70;99.90
24224;DHT22;12359;49.716;9.212;2023-04-06T07:39:19;8.60;98.30
24224;DHT22;12359;49.716;9.212;2023-04-06T07:41:45;8.60;92.10
24224;DHT22;12359;49.716;9.212;2023-04-06T07:44:11;8.60;96.20
24224;DHT22;12359;49.716;9.212;2023-04-06T07:46:36;9.10;90.10
24224;DHT22;12359;49.716;9.212;2023-04-06T07:49:02;9.60;73.80
24224;DHT22;12359;49.716;9.212;2023-04-06T07:51:28;9.80;51.70
24224;DHT22;12359;49.716;9.212;2023-04-06T07:53:54;10.50;37.90
24224;DHT22;12359;49.716;9.212;2023-04-06T07:56:20;10.90;27.10
24224;DHT22;12359;49.716;9.212;2023-04-06T07:58:46;11.30;13.40
24224;DHT22;12359;49.716;9.212;2023-04-06T08:01:12;11.80;4.30
24224;DHT22;12359;49.716;9.212;2023-04-06T08:03:38;11.50;1.00
24224;DHT22;12359;49.716;9.212;2023-04-06T08:06:04;11.40;1.00
24224;DHT22;12359;49.716;9.212;2023-04-06T08:08:30;11.10;1.00
24224;DHT22;12359;49.716;9.212;2023-04-06T08:10:56;11.30;1.00
24224;DHT22;12359;49.716;9.212;2023-04-06T08:13:22;11.40;1.00
24224;DHT22;12359;49.716;9.212;2023-04-06T08:15:48;11.40;1.00
24224;DHT22;12359;49.716;9.212;2023-04-06T08:18:14;11.70;1.00
24224;DHT22;12359;49.716;9.212;2023-04-06T08:20:40;12.10;1.00
24224;DHT22;12359;49.716;9.212;2023-04-06T08:23:06;12.60;1.00
24224;DHT22;12359;49.716;9.212;2023-04-06T08:25:35;13.00;1.00
24224;DHT22;12359;49.716;9.212;2023-04-06T08:28:02;12.80;1.00
24224;DHT22;12359;49.716;9.212;2023-04-06T08:30:28;12.70;1.00
24224;DHT22;12359;49.716;9.212;2023-04-06T08:32:54;12.90;1.00
24224;DHT22;12359;49.716;9.212;2023-04-06T08:35:20;13.90;1.00
24224;DHT22;12359;49.716;9.212;2023-04-06T08:37:46;14.80;1.00
24224;DHT22;12359;49.716;9.212;2023-04-06T08:40:12;15.00;1.00
24224;DHT22;12359;49.716;9.212;2023-04-06T08:42:44;14.70;1.00
24224;DHT22;12359;49.716;9.212;2023-04-06T08:45:16;14.60;1.00
24224;DHT22;12359;49.716;9.212;2023-04-06T08:47:42;15.10;1.00
24224;DHT22;12359;49.716;9.212;2023-04-06T08:50:09;15.20;1.00
24224;DHT22;12359;49.716;9.212;2023-04-06T08:52:37;15.40;1.00
24224;DHT22;12359;49.716;9.212;2023-04-06T08:55:03;15.60;1.00
24224;DHT22;12359;49.716;9.212;2023-04-06T08:57:31;15.80;1.00
24224;DHT22;12359;49.716;9.212;2023-04-06T08:59:57;15.40;1.00
24224;DHT22;12359;49.716;9.212;2023-04-06T09:02:26;15.60;1.00
24224;DHT22;12359;49.716;9.212;2023-04-06T09:04:53;15.20;1.00
24224;DHT22;12359;49.716;9.212;2023-04-06T09:07:19;15.40;1.00
24224;DHT22;12359;49.716;9.212;2023-04-06T09:09:45;15.10;1.00
24224;DHT22;12359;49.716;9.212;2023-04-06T09:12:28;15.60;1.00
24224;DHT22;12359;49.716;9.212;2023-04-06T09:14:54;16.00;1.00
24224;DHT22;12359;49.716;9.212;2023-04-06T09:17:28;16.20;1.00
24224;DHT22;12359;49.716;9.212;2023-04-06T09:19:54;16.60;1.00
24224;DHT22;12359;49.716;9.212;2023-04-06T09:22:21;16.30;1.00
24224;DHT22;12359;49.716;9.212;2023-04-06T09:24:49;16.40;1.00
24224;DHT22;12359;49.716;9.212;2023-04-06T09:27:15;16.60;1.00
24224;DHT22;12359;49.716;9.212;2023-04-06T09:29:41;16.60;1.00
24224;DHT22;12359;49.716;9.212;2023-04-06T09:32:08;16.40;1.00
24224;DHT22;12359;49.716;9.212;2023-04-06T09:34:38;16.30;1.00
24224;DHT22;12359;49.716;9.212;2023-04-06T09:37:17;16.90;1.00
24224;DHT22;12359;49.716;9.212;2023-04-06T09:39:44;17.00;1.00
24224;DHT22;12359;49.716;9.212;2023-04-06T09:42:22;16.90;1.00
24224;DHT22;12359;49.716;9.212;2023-04-06T09:44:48;16.80;1.00
24224;DHT22;12359;49.716;9.212;2023-04-06T09:47:15;16.70;1.00
24224;DHT22;12359;49.716;9.212;2023-04-06T09:49:42;16.70;1.00
24224;DHT22;12359;49.716;9.212;2023-04-06T09:52:11;16.70;1.00
24224;DHT22;12359;49.716;9.212;2023-04-06T09:54:38;17.50;1.00
24224;DHT22;12359;49.716;9.212;2023-04-06T09:57:25;17.60;1.00
24224;DHT22;12359;49.716;9.212;2023-04-06T10:07:51;18.20;1.00
24224;DHT22;12359;49.716;9.212;2023-04-06T10:10:18;19.10;1.00
24224;DHT22;12359;49.716;9.212;2023-04-06T10:12:45;19.80;1.00
24224;DHT22;12359;49.716;9.212;2023-04-06T10:15:12;18.90;1.00
24224;DHT22;12359;49.716;9.212;2023-04-06T10:17:38;18.20;1.00
24224;DHT22;12359;49.716;9.212;2023-04-06T10:20:10;18.00;1.00
24224;DHT22;12359;49.716;9.212;2023-04-06T10:22:45;17.60;1.00
24224;DHT22;12359;49.716;9.212;2023-04-06T10:25:29;16.90;1.00
24224;DHT22;12359;49.716;9.212;2023-04-06T10:28:08;15.90;1.00
24224;DHT22;12359;49.716;9.212;2023-04-06T10:30:35;15.00;1.00
24224;DHT22;12359;49.716;9.212;2023-04-06T10:33:17;14.70;1.00
24224;DHT22;12359;49.716;9.212;2023-04-06T10:35:43;15.10;1.00
24224;DHT22;12359;49.716;9.212;2023-04-06T10:38:09;15.50;1.00
24224;DHT22;12359;49.716;9.212;2023-04-06T10:40:38;16.30;1.00
24224;DHT22;12359;49.716;9.212;2023-04-06T10:43:17;17.10;1.00
24224;DHT22;12359;49.716;9.212;2023-04-06T10:45:44;17.70;1.00
24224;DHT22;12359;49.716;9.212;2023-04-06T10:48:16;17.90;1.00
24224;DHT22;12359;49.716;9.212;2023-04-06T10:50:50;18.80;1.00
24224;DHT22;12359;49.716;9.212;2023-04-06T10:53:25;19.60;1.00
24224;DHT22;12359;49.716;9.212;2023-04-06T10:55:52;19.90;1.00
24224;DHT22;12359;49.716;9.212;2023-04-06T10:58:19;20.10;1.00
24224;DHT22;12359;49.716;9.212;2023-04-06T11:00:46;19.00;1.00
24224;DHT22;12359;49.716;9.212;2023-04-06T11:03:12;18.70;1.00
24224;DHT22;12359;49.716;9.212;2023-04-06T11:05:38;18.70;1.00
24224;DHT22;12359;49.716;9.212;2023-04-06T11:08:04;19.10;1.00
24224;DHT22;12359;49.716;9.212;2023-04-06T11:10:29;19.50;1.00
24224;DHT22;12359;49.716;9.212;2023-04-06T11:12:56;20.10;1.00
24224;DHT22;12359;49.716;9.212;2023-04-06T11:15:22;19.80;99.90
24224;DHT22;12359;49.716;9.212;2023-04-06T11:17:49;18.50;99.90
24224;DHT22;12359;49.716;9.212;2023-04-06T11:20:15;17.80;99.90
24224;DHT22;12359;49.716;9.212;2023-04-06T11:22:53;17.40;99.90
24224;DHT22;12359;49.716;9.212;2023-04-06T11:25:19;17.70;99.90
24224;DHT22;12359;49.716;9.212;2023-04-06T11:27:46;17.60;99.90
24224;DHT22;12359;49.716;9.212;2023-04-06T11:30:14;17.80;99.90
24224;DHT22;12359;49.716;9.212;2023-04-06T11:32:44;18.50;99.90
24224;DHT22;12359;49.716;9.212;2023-04-06T11:35:20;18.30;99.90
24224;DHT22;12359;49.716;9.212;2023-04-06T11:37:47;18.10;99.90
24224;DHT22;12359;49.716;9.212;2023-04-06T11:40:13;17.80;99.90
24224;DHT22;12359;49.716;9.212;2023-04-06T11:42:39;18.00;99.90
24224;DHT22;12359;49.716;9.212;2023-04-06T11:45:07;18.30;99.90
24224;DHT22;12359;49.716;9.212;2023-04-06T11:47:35;18.30;99.90
24224;DHT22;12359;49.716;9.212;2023-04-06T11:50:14;18.10;99.90
24224;DHT22;12359;49.716;9.212;2023-04-06T11:52:40;17.70;99.90
24224;DHT22;12359;49.716;9.212;2023-04-06T11:55:14;17.40;99.90
24224;DHT22;12359;49.716;9.212;2023-04-06T11:57:41;17.30;99.90
24224;DHT22;12359;49.716;9.212;2023-04-06T12:00:08;17.30;99.90
24224;DHT22;12359;49.716;9.212;2023-04-06T12:02:35;17.10;99.90
24224;DHT22;12359;49.716;9.212;2023-04-06T12:05:02;16.90;99.90
24224;DHT22;12359;49.716;9.212;2023-04-06T12:07:29;16.80;99.90
24224;DHT22;12359;49.716;9.212;2023-04-06T12:09:55;16.80;99.90
24224;DHT22;12359;49.716;9.212;2023-04-06T12:12:21;16.90;99.90
24224;DHT22;12359;49.716;9.212;2023-04-06T12:14:47;17.60;99.90
24224;DHT22;12359;49.716;9.212;2023-04-06T12:17:12;18.00;99.90
24224;DHT22;12359;49.716;9.212;2023-04-06T12:19:38;18.50;99.90
24224;DHT22;12359;49.716;9.212;2023-04-06T12:22:04;18.20;99.90
24224;DHT22;12359;49.716;9.212;2023-04-06T12:24:29;17.50;99.90
24224;DHT22;12359;49.716;9.212;2023-04-06T12:26:55;17.00;99.90
24224;DHT22;12359;49.716;9.212;2023-04-06T12:29:23;16.90;99.90
24224;DHT22;12359;49.716;9.212;2023-04-06T12:31:49;16.80;99.90
24224;DHT22;12359;49.716;9.212;2023-04-06T12:34:15;16.60;99.90
24224;DHT22;12359;49.716;9.212;2023-04-06T12:36:40;16.80;99.90
24224;DHT22;12359;49.716;9.212;2023-04-06T12:39:06;17.00;99.90
24224;DHT22;12359;49.716;9.212;2023-04-06T12:41:32;17.10;99.90
24224;DHT22;12359;49.716;9.212;2023-04-06T12:43:58;17.10;99.90
24224;DHT22;12359;49.716;9.212;2023-04-06T12:46:24;17.40;99.90
24224;DHT22;12359;49.716;9.212;2023-04-06T12:48:51;17.70;99.90
24224;DHT22;12359;49.716;9.212;2023-04-06T12:51:20;18.10;99.90
24224;DHT22;12359;49.716;9.212;2023-04-06T12:53:47;18.70;99.90
24224;DHT22;12359;49.716;9.212;2023-04-06T12:56:14;19.00;99.90
24224;DHT22;12359;49.716;9.212;2023-04-06T12:58:41;19.20;99.90
24224;DHT22;12359;49.716;9.212;2023-04-06T13:01:07;19.30;99.90
24224;DHT22;12359;49.716;9.212;2023-04-06T13:03:33;19.40;99.90
24224;DHT22;12359;49.716;9.212;2023-04-06T13:06:00;19.20;99.90
24224;DHT22;12359;49.716;9.212;2023-04-06T13:08:26;19.00;99.90
24224;DHT22;12359;49.716;9.212;2023-04-06T13:10:55;18.30;99.90
24224;DHT22;12359;49.716;9.212;2023-04-06T13:13:29;18.20;99.90
24224;DHT22;12359;49.716;9.212;2023-04-06T13:16:02;18.40;99.90
24224;DHT22;12359;49.716;9.212;2023-04-06T13:18:29;18.50;99.90
24224;DHT22;12359;49.716;9.212;2023-04-06T13:20:56;18.80;99.90
24224;DHT22;12359;49.716;9.212;2023-04-06T13:23:24;18.20;99.90
24224;DHT22;12359;49.716;9.212;2023-04-06T13:26:04;18.20;99.90
24224;DHT22;12359;49.716;9.212;2023-04-06T13:28:31;18.00;99.90
24224;DHT22;12359;49.716;9.212;2023-04-06T13:30:58;17.90;99.90
24224;DHT22;12359;49.716;9.212;2023-04-06T13:33:25;17.60;99.90
24224;DHT22;12359;49.716;9.212;2023-04-06T13:35:51;17.40;99.90
24224;DHT22;12359;49.716;9.212;2023-04-06T13:38:17;17.20;99.90
24224;DHT22;12359;49.716;9.212;2023-04-06T13:40:43;17.20;99.90
24224;DHT22;12359;49.716;9.212;2023-04-06T13:43:09;17.20;99.90
24224;DHT22;12359;49.716;9.212;2023-04-06T13:45:37;17.20;99.90
24224;DHT22;12359;49.716;9.212;2023-04-06T13:48:03;17.30;99.90
24224;DHT22;12359;49.716;9.212;2023-04-06T13:50:29;17.30;99.90
24224;DHT22;12359;49.716;9.212;2023-04-06T13:52:55;17.20;99.90
24224;DHT22;12359;49.716;9.212;2023-04-06T13:55:21;17.20;99.90
24224;DHT22;12359;49.716;9.212;2023-04-06T13:57:49;16.80;99.90
24224;DHT22;12359;49.716;9.212;2023-04-06T14:00:15;16.50;99.90
24224;DHT22;12359;49.716;9.212;2023-04-06T14:02:41;16.30;99.90
24224;DHT22;12359;49.716;9.212;2023-04-06T14:05:07;16.10;99.90
24224;DHT22;12359;49.716;9.212;2023-04-06T14:07:33;16.30;99.90
24224;DHT22;12359;49.716;9.212;2023-04-06T14:09:59;16.30;99.90
24224;DHT22;12359;49.716;9.212;2023-04-06T14:12:25;16.10;99.90
24224;DHT22;12359;49.716;9.212;2023-04-06T14:14:52;16.20;99.90
24224;DHT22;12359;49.716;9.212;2023-04-06T14:17:18;16.40;99.90
24224;DHT22;12359;49.716;9.212;2023-04-06T14:19:43;16.50;99.90
24224;DHT22;12359;49.716;9.212;2023-04-06T14:22:09;16.40;99.90
24224;DHT22;12359;49.716;9.212;2023-04-06T14:24:36;16.40;99.90
24224;DHT22;12359;49.716;9.212;2023-04-06T14:27:02;16.40;1.00
24224;DHT22;12359;49.716;9.212;2023-04-06T14:29:28;16.10;99.90
24224;DHT22;12359;49.716;9.212;2023-04-06T14:31:54;16.10;99.90
24224;DHT22;12359;49.716;9.212;2023-04-06T14:34:26;15.80;99.90
24224;DHT22;12359;49.716;9.212;2023-04-06T14:36:51;15.80;99.90
24224;DHT22;12359;49.716;9.212;2023-04-06T14:39:17;16.00;99.90
24224;DHT22;12359;49.716;9.212;2023-04-06T14:41:43;16.10;99.90
24224;DHT22;12359;49.716;9.212;2023-04-06T14:44:08;16.30;99.90
24224;DHT22;12359;49.716;9.212;2023-04-06T14:46:37;16.20;99.90
24224;DHT22;12359;49.716;9.212;2023-04-06T14:49:03;15.90;99.90
24224;DHT22;12359;49.716;9.212;2023-04-06T14:51:29;15.50;99.90
24224;DHT22;12359;49.716;9.212;2023-04-06T14:53:54;15.30;99.90
24224;DHT22;12359;49.716;9.212;2023-04-06T14:56:24;15.10;99.90
24224;DHT22;12359;49.716;9.212;2023-04-06T14:58:50;15.10;99.90
24224;DHT22;12359;49.716;9.212;2023-04-06T15:01:19;15.00;99.90
24224;DHT22;12359;49.716;9.212;2023-04-06T15:03:48;15.00;99.90
24224;DHT22;12359;49.716;9.212;2023-04-06T15:06:14;15.00;99.90
24224;DHT22;12359;49.716;9.212;2023-04-06T15:08:42;14.90;99.90
24224;DHT22;12359;49.716;9.212;2023-04-06T15:11:08;14.90;99.90
24224;DHT22;12359;49.716;9.212;2023-04-06T15:13:33;14.70;99.90
24224;DHT22;12359;49.716;9.212;2023-04-06T15:15:59;14.80;99.90
24224;DHT22;12359;49.716;9.212;2023-04-06T15:18:25;14.70;99.90
24224;DHT22;12359;49.716;9.212;2023-04-06T15:20:51;14.80;99.90
24224;DHT22;12359;49.716;9.212;2023-04-06T15:23:17;14.90;99.90
24224;DHT22;12359;49.716;9.212;2023-04-06T15:25:43;14.90;99.90
24224;DHT22;12359;49.716;9.212;2023-04-06T15:28:09;14.80;99.90
24224;DHT22;12359;49.716;9.212;2023-04-06T15:30:35;14.70;99.90
24224;DHT22;12359;49.716;9.212;2023-04-06T15:33:01;14.70;99.90
24224;DHT22;12359;49.716;9.212;2023-04-06T15:35:32;14.80;99.90
24224;DHT22;12359;49.716;9.212;2023-04-06T15:37:59;14.90;99.90
24224;DHT22;12359;49.716;9.212;2023-04-06T15:40:26;15.00;99.90
24224;DHT22;12359;49.716;9.212;2023-04-06T15:42:52;14.90;99.90
24224;DHT22;12359;49.716;9.212;2023-04-06T15:45:18;14.80;99.90
24224;DHT22;12359;49.716;9.212;2023-04-06T15:47:45;14.90;99.90